Time;durP1;ratioP1;P1;durP2;ratioP2;P2;SDS_P1;SDS_P2;PMS_P1;PMS_P2;Temp;Humidity;BMP_temperature;BMP_pressure;BME280_temperature;BME280_humidity;BME280_pressure;Samples;Min_cycle;Max_cycle;Signal;HPM_P1;HPM_P2
2022/11/16 00:01:26;;;;;;;;;;;15.50;97.00;;;;;;5115533;28;19924;-65
2022/11/16 00:03:52;;;;;;;;;;;15.50;97.00;;;;;;5098257;28;19924;-65
2022/11/16 00:06:18;;;;;;;;;;;15.30;97.00;;;;;;5095898;28;19924;-65
2022/11/16 00:08:44;;;;;;;;;;;15.60;97.00;;;;;;5095980;28;19924;-67
2022/11/16 00:11:10;;;;;;;;;;;15.30;96.90;;;;;;5101374;28;20293;-65
2022/11/16 00:13:36;;;;;;;;;;;15.40;97.00;;;;;;5115694;28;20338;-68
2022/11/16 00:16:02;;;;;;;;;;;15.50;97.10;;;;;;5114911;28;20018;-66
2022/11/16 00:18:28;;;;;;;;;;;15.30;97.00;;;;;;5114898;28;19932;-66
2022/11/16 00:20:53;;;;;;;;;;;15.50;97.10;;;;;;5116340;28;19924;-67
2022/11/16 00:23:19;;;;;;;;;;;15.50;97.10;;;;;;5114575;28;19923;-66
2022/11/16 00:25:45;;;;;;;;;;;15.50;97.10;;;;;;5113061;28;19923;-65
2022/11/16 00:28:11;;;;;;;;;;;15.60;97.20;;;;;;5095297;28;20007;-64
2022/11/16 00:30:36;;;;;;;;;;;15.70;97.20;;;;;;5114546;28;20384;-66
2022/11/16 00:33:02;;;;;;;;;;;15.60;96.80;;;;;;5096427;28;19923;-67
2022/11/16 00:35:28;;;;;;;;;;;15.40;97.10;;;;;;5115288;28;20014;-64
2022/11/16 00:37:54;;;;;;;;;;;15.60;97.20;;;;;;5114007;28;20018;-68
2022/11/16 00:40:19;;;;;;;;;;;15.30;97.10;;;;;;5115599;28;19923;-66
2022/11/16 00:42:45;;;;;;;;;;;15.00;97.00;;;;;;5074657;28;19925;-66
2022/11/16 00:45:10;;;;;;;;;;;15.40;97.20;;;;;;5073597;28;19924;-65
2022/11/16 00:47:36;;;;;;;;;;;15.50;97.20;;;;;;5075438;28;19925;-65
2022/11/16 00:50:02;;;;;;;;;;;15.50;97.20;;;;;;5075218;28;19931;-64
2022/11/16 00:52:27;;;;;;;;;;;15.30;97.10;;;;;;5084843;28;20161;-66
2022/11/16 00:54:53;;;;;;;;;;;15.50;97.20;;;;;;5055136;28;19927;-65
2022/11/16 00:57:19;;;;;;;;;;;15.50;97.30;;;;;;5053817;28;20335;-66
2022/11/16 00:59:45;;;;;;;;;;;15.30;97.20;;;;;;5060303;28;20027;-66
2022/11/16 01:02:10;;;;;;;;;;;15.30;97.20;;;;;;5089971;28;20282;-64
2022/11/16 01:04:36;;;;;;;;;;;15.30;97.30;;;;;;5056808;28;20402;-65
2022/11/16 01:07:02;;;;;;;;;;;15.50;97.30;;;;;;5074565;28;19971;-67
2022/11/16 01:09:27;;;;;;;;;;;15.40;97.30;;;;;;5072873;28;19925;-65
2022/11/16 01:12:08;;;;;;;;;;;15.40;97.30;;;;;;5074475;28;19924;-64
2022/11/16 01:14:43;;;;;;;;;;;15.40;97.30;;;;;;5071873;28;19925;-64
2022/11/16 01:17:09;;;;;;;;;;;15.40;97.40;;;;;;5074658;28;19929;-69
2022/11/16 01:19:35;;;;;;;;;;;15.40;97.30;;;;;;5074541;28;19924;-66
2022/11/16 01:22:01;;;;;;;;;;;15.50;97.40;;;;;;5074173;28;19924;-66
2022/11/16 01:24:26;;;;;;;;;;;15.20;97.30;;;;;;5073739;28;19924;-65
2022/11/16 01:26:55;;;;;;;;;;;15.50;97.40;;;;;;5072899;28;20313;-66
2022/11/16 01:29:22;;;;;;;;;;;15.40;97.40;;;;;;5073804;28;19963;-65
2022/11/16 01:31:48;;;;;;;;;;;15.30;97.40;;;;;;5072931;28;20344;-64
2022/11/16 01:34:14;;;;;;;;;;;15.50;97.40;;;;;;5063435;28;19928;-68
2022/11/16 01:36:40;;;;;;;;;;;15.50;97.50;;;;;;5036620;28;19925;-67
2022/11/16 01:39:05;;;;;;;;;;;15.40;97.40;;;;;;5043951;28;20023;-65
2022/11/16 01:41:31;;;;;;;;;;;15.50;97.50;;;;;;5093823;28;19932;-66
2022/11/16 01:43:58;;;;;;;;;;;15.30;97.40;;;;;;5113325;28;19928;-65
2022/11/16 01:46:23;;;;;;;;;;;15.60;97.50;;;;;;5114827;28;20006;-65
2022/11/16 01:48:51;;;;;;;;;;;15.60;97.60;;;;;;5113584;28;19985;-65
2022/11/16 01:51:17;;;;;;;;;;;15.30;97.50;;;;;;5096342;28;20030;-65
2022/11/16 01:53:43;;;;;;;;;;;15.20;97.50;;;;;;5096577;28;19967;-65
2022/11/16 01:56:08;;;;;;;;;;;15.30;97.50;;;;;;5111253;28;19935;-66
2022/11/16 01:58:34;;;;;;;;;;;15.30;97.50;;;;;;5112752;28;19924;-66
2022/11/16 02:01:00;;;;;;;;;;;15.40;97.60;;;;;;5113085;28;20316;-66
2022/11/16 02:03:25;;;;;;;;;;;15.20;97.50;;;;;;5111862;28;20289;-64
2022/11/16 02:06:04;;;;;;;;;;;15.60;97.60;;;;;;5112361;28;20376;-66
2022/11/16 02:11:30;;;;;;;;;;;15.50;97.60;;;;;;5113016;28;20022;-65
2022/11/16 02:14:05;;;;;;;;;;;15.40;97.60;;;;;;5095966;28;19924;-64
2022/11/16 02:16:30;;;;;;;;;;;15.40;97.60;;;;;;5112212;28;19931;-65
2022/11/16 02:19:16;;;;;;;;;;;15.40;97.60;;;;;;5112564;28;19931;-67
2022/11/16 02:21:48;;;;;;;;;;;15.30;97.60;;;;;;5099795;28;19931;-70
2022/11/16 02:24:32;;;;;;;;;;;15.50;97.70;;;;;;5064302;28;19928;-67
2022/11/16 02:27:01;;;;;;;;;;;15.30;97.70;;;;;;5114576;28;19973;-64
2022/11/16 02:29:34;;;;;;;;;;;15.20;97.60;;;;;;5112618;28;19931;-66
2022/11/16 02:32:06;;;;;;;;;;;15.30;97.70;;;;;;5095886;28;19928;-64
2022/11/16 02:34:33;;;;;;;;;;;15.30;97.70;;;;;;5112037;28;19985;-64
2022/11/16 02:36:59;;;;;;;;;;;15.00;97.60;;;;;;5113161;28;19927;-67
2022/11/16 02:39:26;;;;;;;;;;;15.40;97.70;;;;;;5113641;28;20366;-65
2022/11/16 02:41:51;;;;;;;;;;;15.30;97.70;;;;;;5095710;28;19968;-64
2022/11/16 02:44:18;;;;;;;;;;;15.60;97.80;;;;;;5109076;28;19924;-65
2022/11/16 02:46:44;;;;;;;;;;;15.30;97.70;;;;;;5095855;28;19981;-66
2022/11/16 02:49:11;;;;;;;;;;;15.30;97.60;;;;;;5117131;28;19920;-69
2022/11/16 02:51:37;;;;;;;;;;;15.30;97.60;;;;;;5117337;28;19985;-66
2022/11/16 02:54:03;;;;;;;;;;;15.20;97.60;;;;;;5117855;28;20014;-65
2022/11/16 02:56:29;;;;;;;;;;;15.60;97.70;;;;;;5116902;28;19924;-68
2022/11/16 02:58:56;;;;;;;;;;;15.30;97.60;;;;;;5098918;28;19931;-68
2022/11/16 03:01:24;;;;;;;;;;;15.30;97.60;;;;;;5117702;28;20445;-66
2022/11/16 03:03:51;;;;;;;;;;;15.50;97.60;;;;;;5117131;28;19992;-66
2022/11/16 03:06:18;;;;;;;;;;;15.60;97.60;;;;;;5098616;28;19950;-65
2022/11/16 03:08:45;;;;;;;;;;;15.40;97.60;;;;;;5115128;28;19927;-66
2022/11/16 03:13:56;;;;;;;;;;;15.60;97.70;;;;;;5102074;28;19989;-65
2022/11/16 03:16:22;;;;;;;;;;;15.60;97.70;;;;;;5115001;28;20010;-65
2022/11/16 03:18:48;;;;;;;;;;;15.60;97.60;;;;;;5116169;28;19927;-65
2022/11/16 03:21:16;;;;;;;;;;;15.50;97.60;;;;;;5117159;28;19924;-66
2022/11/16 03:23:42;;;;;;;;;;;15.60;97.70;;;;;;5117551;28;19924;-67
2022/11/16 03:26:07;;;;;;;;;;;15.30;97.60;;;;;;5116550;27;20129;-64
2022/11/16 03:28:40;;;;;;;;;;;15.40;97.60;;;;;;5116079;28;19971;-65
2022/11/16 03:31:08;;;;;;;;;;;15.50;97.60;;;;;;5099212;28;19923;-64
2022/11/16 03:33:35;;;;;;;;;;;15.40;97.60;;;;;;5098862;28;20385;-65
2022/11/16 03:36:06;;;;;;;;;;;15.60;97.70;;;;;;5097729;28;19928;-65
2022/11/16 03:38:32;;;;;;;;;;;15.60;97.70;;;;;;5098947;28;19924;-65
2022/11/16 03:40:59;;;;;;;;;;;15.60;97.70;;;;;;5098581;28;19927;-66
2022/11/16 03:43:24;;;;;;;;;;;15.60;97.70;;;;;;5114914;28;19923;-67
2022/11/16 03:45:50;;;;;;;;;;;15.50;97.70;;;;;;5115862;28;20002;-64
2022/11/16 03:48:16;;;;;;;;;;;15.40;97.40;;;;;;5116059;28;19923;-65
2022/11/16 03:50:41;;;;;;;;;;;15.30;97.60;;;;;;5115786;28;20010;-65
2022/11/16 03:53:07;;;;;;;;;;;15.30;97.60;;;;;;5098773;28;19924;-65
2022/11/16 03:55:33;;;;;;;;;;;15.30;97.60;;;;;;5114799;28;19999;-65
2022/11/16 03:57:58;;;;;;;;;;;15.60;97.50;;;;;;5113845;28;19924;-65
2022/11/16 04:00:24;;;;;;;;;;;15.50;97.70;;;;;;5097348;28;19964;-65
2022/11/16 04:02:50;;;;;;;;;;;15.70;97.70;;;;;;5094909;28;19924;-68
2022/11/16 04:24:27;;;;;;;;;;;15.60;97.80;;;;;;5114770;28;19931;-64
2022/11/16 04:29:37;;;;;;;;;;;15.40;97.70;;;;;;5113495;28;19924;-68
2022/11/16 04:40:16;;;;;;;;;;;15.60;97.90;;;;;;5114812;28;20027;-65
2022/11/16 04:42:42;;;;;;;;;;;15.30;97.80;;;;;;5097281;28;20022;-65
2022/11/16 04:47:52;;;;;;;;;;;15.30;97.80;;;;;;5097541;28;19924;-65
2022/11/16 04:50:18;;;;;;;;;;;15.50;97.80;;;;;;5113552;28;19935;-65
2022/11/16 04:52:43;;;;;;;;;;;15.50;97.90;;;;;;5114314;28;19933;-68
2022/11/16 04:55:09;;;;;;;;;;;15.40;97.80;;;;;;5116099;27;19927;-65
2022/11/16 04:57:35;;;;;;;;;;;15.30;97.90;;;;;;5115319;28;19924;-66
2022/11/16 05:00:01;;;;;;;;;;;15.50;97.90;;;;;;5113040;28;20031;-65
2022/11/16 05:02:26;;;;;;;;;;;15.20;97.90;;;;;;5114738;28;20010;-65
2022/11/16 05:04:52;;;;;;;;;;;15.50;97.90;;;;;;5115237;28;20084;-65
2022/11/16 05:07:18;;;;;;;;;;;15.40;97.90;;;;;;5113315;28;19928;-67
2022/11/16 05:09:45;;;;;;;;;;;15.40;97.90;;;;;;5113682;28;19936;-65
2022/11/16 05:12:13;;;;;;;;;;;15.60;97.90;;;;;;5096732;28;19994;-65
2022/11/16 05:14:39;;;;;;;;;;;15.60;98.00;;;;;;5114217;28;19978;-69
2022/11/16 05:17:05;;;;;;;;;;;15.50;97.90;;;;;;5115440;28;19977;-66
2022/11/16 05:22:19;;;;;;;;;;;15.50;97.90;;;;;;5084753;28;19924;-66
2022/11/16 05:24:45;;;;;;;;;;;15.60;98.00;;;;;;5113810;28;19924;-65
2022/11/16 05:27:12;;;;;;;;;;;15.40;97.90;;;;;;5095840;28;19924;-68
2022/11/16 05:29:38;;;;;;;;;;;15.50;97.90;;;;;;5096127;28;19998;-67
2022/11/16 05:32:04;;;;;;;;;;;15.20;97.90;;;;;;5115152;28;19955;-67
2022/11/16 05:34:29;;;;;;;;;;;15.30;97.90;;;;;;5115124;28;20273;-69
2022/11/16 05:36:55;;;;;;;;;;;15.30;97.90;;;;;;5112920;28;19969;-65
2022/11/16 05:39:21;;;;;;;;;;;15.40;97.90;;;;;;5113000;28;20456;-65
2022/11/16 05:41:47;;;;;;;;;;;15.60;98.00;;;;;;5114947;28;20393;-67
2022/11/16 05:44:13;;;;;;;;;;;15.30;97.90;;;;;;5114214;28;19924;-66
2022/11/16 05:46:38;;;;;;;;;;;15.20;97.90;;;;;;5113365;28;19927;-65
2022/11/16 05:49:06;;;;;;;;;;;15.50;98.00;;;;;;5112739;28;19920;-66
2022/11/16 05:51:35;;;;;;;;;;;15.10;97.90;;;;;;5114820;28;19933;-65
2022/11/16 05:54:01;;;;;;;;;;;15.50;98.00;;;;;;5114301;28;19927;-66
2022/11/16 05:56:26;;;;;;;;;;;15.40;98.00;;;;;;5112288;28;19939;-64
2022/11/16 05:58:52;;;;;;;;;;;15.30;97.90;;;;;;5111973;28;19927;-65
2022/11/16 06:01:18;;;;;;;;;;;15.40;98.00;;;;;;5112818;28;19928;-64
2022/11/16 06:03:44;;;;;;;;;;;15.50;98.00;;;;;;5115120;28;20026;-67
2022/11/16 06:06:09;;;;;;;;;;;15.40;98.00;;;;;;5113433;28;19924;-66
2022/11/16 06:08:35;;;;;;;;;;;15.20;97.90;;;;;;5111867;28;20381;-66
2022/11/16 06:11:05;;;;;;;;;;;15.40;98.00;;;;;;5094977;28;19976;-65
2022/11/16 06:13:30;;;;;;;;;;;15.30;98.00;;;;;;5113051;28;20385;-64
2022/11/16 06:15:56;;;;;;;;;;;15.40;98.00;;;;;;5114540;28;19970;-65
2022/11/16 06:18:22;;;;;;;;;;;15.40;98.10;;;;;;5115355;28;19924;-65
2022/11/16 06:20:47;;;;;;;;;;;15.20;98.00;;;;;;5115123;28;20352;-65
2022/11/16 06:23:13;;;;;;;;;;;15.30;98.10;;;;;;5117616;28;19924;-67
2022/11/16 06:25:39;;;;;;;;;;;15.50;98.20;;;;;;5117105;28;19946;-66
2022/11/16 06:28:04;;;;;;;;;;;15.60;98.20;;;;;;5117221;28;19924;-68
2022/11/16 06:30:30;;;;;;;;;;;15.30;98.10;;;;;;5117431;27;20014;-69
2022/11/16 06:32:56;;;;;;;;;;;15.30;98.20;;;;;;5118270;28;19930;-65
2022/11/16 06:35:21;;;;;;;;;;;15.40;98.20;;;;;;5118260;28;19970;-67
2022/11/16 06:37:47;;;;;;;;;;;15.30;98.20;;;;;;5117961;28;19934;-68
2022/11/16 06:40:13;;;;;;;;;;;15.20;98.10;;;;;;5117422;28;20003;-66
2022/11/16 06:42:39;;;;;;;;;;;15.50;98.20;;;;;;5118200;28;19924;-65
2022/11/16 06:45:04;;;;;;;;;;;15.30;98.10;;;;;;5116939;28;20018;-65
2022/11/16 06:47:30;;;;;;;;;;;15.20;98.10;;;;;;5117110;28;19931;-65
2022/11/16 06:49:56;;;;;;;;;;;15.50;98.20;;;;;;5117255;28;19924;-66
2022/11/16 06:52:21;;;;;;;;;;;15.50;98.20;;;;;;5117809;28;20297;-67
2022/11/16 06:54:47;;;;;;;;;;;15.60;98.30;;;;;;5118133;28;19935;-65
2022/11/16 06:57:13;;;;;;;;;;;15.40;98.10;;;;;;5117972;28;20424;-64
2022/11/16 06:59:39;;;;;;;;;;;;;;;;;;5102907;28;20069;-70
2022/11/16 07:02:05;;;;;;;;;;;15.60;98.20;;;;;;5117323;28;19923;-65
2022/11/16 07:04:31;;;;;;;;;;;15.50;98.10;;;;;;5117891;28;19975;-65
2022/11/16 07:06:56;;;;;;;;;;;15.30;98.10;;;;;;5117968;27;20458;-66
2022/11/16 07:09:22;;;;;;;;;;;15.40;98.10;;;;;;5112069;28;20393;-67
2022/11/16 07:11:48;;;;;;;;;;;15.70;98.20;;;;;;5110226;28;19928;-65
2022/11/16 07:14:13;;;;;;;;;;;15.10;98.10;;;;;;5116576;28;19978;-67
2022/11/16 07:16:39;;;;;;;;;;;15.30;98.10;;;;;;5118051;28;20377;-69
2022/11/16 07:19:05;;;;;;;;;;;15.40;98.20;;;;;;5117109;28;20022;-66
2022/11/16 07:21:30;;;;;;;;;;;15.50;98.20;;;;;;5116612;28;19920;-65
2022/11/16 07:23:56;;;;;;;;;;;15.40;98.20;;;;;;5115247;28;19923;-65
2022/11/16 07:26:22;;;;;;;;;;;15.30;98.20;;;;;;5117394;28;19924;-67
2022/11/16 07:28:47;;;;;;;;;;;15.60;98.40;;;;;;5116241;28;20369;-69
2022/11/16 07:31:13;;;;;;;;;;;15.40;98.30;;;;;;5114216;28;20456;-66
2022/11/16 07:33:40;;;;;;;;;;;15.50;98.30;;;;;;5116718;28;19980;-67
2022/11/16 07:36:07;;;;;;;;;;;15.60;98.30;;;;;;5116781;28;19931;-68
2022/11/16 07:38:33;;;;;;;;;;;15.40;98.20;;;;;;5116087;28;19989;-67
2022/11/16 07:41:00;;;;;;;;;;;15.70;98.20;;;;;;5115543;28;19993;-67
2022/11/16 07:43:27;;;;;;;;;;;15.60;98.30;;;;;;5115747;28;19924;-69
2022/11/16 07:45:53;;;;;;;;;;;15.30;98.10;;;;;;5115951;28;20308;-68
2022/11/16 07:48:19;;;;;;;;;;;15.40;98.20;;;;;;5115862;28;19924;-69
2022/11/16 07:50:44;;;;;;;;;;;15.50;98.20;;;;;;5114548;28;19924;-67
2022/11/16 07:53:10;;;;;;;;;;;15.70;98.20;;;;;;5115665;28;19977;-70
2022/11/16 07:55:36;;;;;;;;;;;15.60;98.20;;;;;;5115775;28;20376;-67
2022/11/16 07:58:02;;;;;;;;;;;15.70;98.20;;;;;;5114772;28;20335;-68
2022/11/16 08:00:27;;;;;;;;;;;15.70;98.10;;;;;;5114317;28;19935;-67
2022/11/16 08:02:54;;;;;;;;;;;15.80;98.20;;;;;;5115674;28;19924;-67
2022/11/16 08:05:20;;;;;;;;;;;15.60;98.10;;;;;;5116490;28;20022;-67
2022/11/16 08:07:46;;;;;;;;;;;15.40;98.10;;;;;;5116779;28;20011;-67
2022/11/16 08:10:11;;;;;;;;;;;15.60;98.00;;;;;;5109505;28;20104;-68
2022/11/16 08:12:37;;;;;;;;;;;15.50;98.10;;;;;;5097287;28;19936;-69
2022/11/16 08:15:03;;;;;;;;;;;15.80;98.10;;;;;;5098372;28;20392;-67
2022/11/16 08:17:29;;;;;;;;;;;15.60;98.10;;;;;;5116308;28;20283;-67
2022/11/16 08:19:55;;;;;;;;;;;15.80;98.20;;;;;;5113056;28;19928;-67
2022/11/16 08:22:20;;;;;;;;;;;15.90;98.20;;;;;;5097621;28;19964;-66
2022/11/16 08:24:46;;;;;;;;;;;15.80;98.10;;;;;;5109987;28;20312;-68
2022/11/16 08:27:15;;;;;;;;;;;15.80;98.20;;;;;;5098113;28;19923;-67
2022/11/16 08:29:41;;;;;;;;;;;15.60;98.20;;;;;;5111337;28;19923;-68
2022/11/16 08:32:07;;;;;;;;;;;15.50;98.20;;;;;;5113264;28;19928;-67
2022/11/16 08:34:33;;;;;;;;;;;15.40;98.10;;;;;;5097000;28;19924;-66
2022/11/16 08:36:58;;;;;;;;;;;15.60;98.20;;;;;;5096662;28;19927;-68
2022/11/16 08:39:24;;;;;;;;;;;15.50;98.20;;;;;;5113759;28;19924;-69
2022/11/16 08:41:50;;;;;;;;;;;15.60;98.20;;;;;;5114512;28;20312;-68
2022/11/16 08:44:16;;;;;;;;;;;15.60;98.10;;;;;;5114107;28;19947;-66
2022/11/16 08:46:42;;;;;;;;;;;15.50;98.10;;;;;;5101185;28;20408;-66
2022/11/16 08:49:08;;;;;;;;;;;15.30;98.10;;;;;;5094276;28;19928;-67
2022/11/16 08:51:33;;;;;;;;;;;15.70;98.20;;;;;;5077099;28;19924;-64
2022/11/16 08:53:59;;;;;;;;;;;15.70;98.50;;;;;;5095368;28;19925;-65
2022/11/16 08:56:26;;;;;;;;;;;15.50;98.40;;;;;;5102343;28;19931;-64
2022/11/16 08:58:52;;;;;;;;;;;15.40;98.40;;;;;;5114805;28;19931;-65
2022/11/16 09:01:18;;;;;;;;;;;15.80;98.50;;;;;;5115137;28;19928;-64
2022/11/16 09:03:44;;;;;;;;;;;15.70;98.40;;;;;;5114283;28;20057;-65
2022/11/16 09:06:11;;;;;;;;;;;15.40;98.30;;;;;;5113734;28;20014;-67
2022/11/16 09:08:37;;;;;;;;;;;15.70;98.40;;;;;;5114912;28;20057;-67
2022/11/16 09:11:06;;;;;;;;;;;15.70;98.40;;;;;;5114523;28;19924;-64
2022/11/16 09:13:31;;;;;;;;;;;15.70;98.40;;;;;;5115178;28;19930;-65
2022/11/16 09:15:57;;;;;;;;;;;15.60;98.40;;;;;;5115047;28;19928;-66
2022/11/16 09:18:25;;;;;;;;;;;15.50;98.40;;;;;;5112530;28;19969;-65
2022/11/16 09:20:52;;;;;;;;;;;;;;;;;;5113915;28;19949;-64
2022/11/16 09:23:17;;;;;;;;;;;15.60;98.50;;;;;;5114034;28;20303;-65
2022/11/16 09:25:47;;;;;;;;;;;15.70;98.50;;;;;;5113915;28;20011;-65
2022/11/16 09:28:16;;;;;;;;;;;15.50;98.50;;;;;;5104612;28;19992;-65
2022/11/16 09:30:42;;;;;;;;;;;15.50;98.50;;;;;;5114509;28;20298;-67
2022/11/16 09:33:08;;;;;;;;;;;15.50;98.60;;;;;;5114273;28;19927;-65
2022/11/16 09:35:33;;;;;;;;;;;15.40;98.50;;;;;;5113656;28;19924;-64
2022/11/16 09:37:59;;;;;;;;;;;15.40;98.60;;;;;;5111639;28;19975;-65
2022/11/16 09:40:35;;;;;;;;;;;15.70;98.70;;;;;;5093827;28;20014;-63
2022/11/16 09:43:01;;;;;;;;;;;;;;;;;;5109376;28;19923;-65
2022/11/16 09:45:50;;;;;;;;;;;15.70;99.00;;;;;;5113062;28;20296;-64
2022/11/16 09:48:16;;;;;;;;;;;15.70;99.00;;;;;;5107479;28;19924;-66
2022/11/16 09:50:43;;;;;;;;;;;15.60;98.90;;;;;;5096384;28;19989;-65
2022/11/16 09:53:18;;;;;;;;;;;15.50;98.90;;;;;;5113870;28;20444;-66
2022/11/16 09:55:44;;;;;;;;;;;;;;;;;;5114181;28;20022;-65
2022/11/16 09:58:10;;;;;;;;;;;;;;;;;;5114291;28;19974;-65
2022/11/16 10:00:37;;;;;;;;;;;;;;;;;;5111446;28;20292;-66
2022/11/16 10:03:04;;;;;;;;;;;15.60;99.10;;;;;;5113639;28;19999;-64
2022/11/16 10:05:31;;;;;;;;;;;15.40;99.00;;;;;;5113886;28;19924;-65
2022/11/16 10:08:17;;;;;;;;;;;15.50;99.10;;;;;;5096077;28;19997;-65
2022/11/16 10:10:52;;;;;;;;;;;15.60;99.10;;;;;;5111948;27;19930;-64
2022/11/16 10:13:30;;;;;;;;;;;15.80;99.10;;;;;;5113277;28;20343;-66
2022/11/16 10:16:08;;;;;;;;;;;15.70;99.10;;;;;;5114500;28;19968;-67
2022/11/16 10:18:43;;;;;;;;;;;15.60;99.10;;;;;;5113262;28;19930;-69
2022/11/16 10:21:27;;;;;;;;;;;15.60;99.10;;;;;;5104431;28;19998;-67
2022/11/16 10:23:56;;;;;;;;;;;15.80;99.10;;;;;;5113106;28;19924;-66
2022/11/16 10:26:28;;;;;;;;;;;15.80;99.10;;;;;;5113735;28;19932;-66
2022/11/16 10:29:12;;;;;;;;;;;15.90;99.00;;;;;;5112735;28;19924;-67
2022/11/16 10:31:57;;;;;;;;;;;15.90;99.10;;;;;;5112481;28;19924;-67
2022/11/16 10:34:25;;;;;;;;;;;16.00;99.10;;;;;;5112232;28;19981;-68
2022/11/16 10:36:55;;;;;;;;;;;15.80;99.00;;;;;;5111849;28;20343;-69
2022/11/16 10:39:21;;;;;;;;;;;15.80;99.00;;;;;;5095843;28;19978;-68
2022/11/16 10:41:47;;;;;;;;;;;15.80;98.90;;;;;;5112986;28;20037;-67
2022/11/16 10:44:16;;;;;;;;;;;15.80;98.90;;;;;;5113447;28;20435;-67
2022/11/16 10:46:43;;;;;;;;;;;15.80;98.80;;;;;;5128808;28;19932;-67
2022/11/16 10:49:15;;;;;;;;;;;15.90;98.90;;;;;;5112602;28;19924;-66
2022/11/16 10:51:41;;;;;;;;;;;16.00;98.90;;;;;;5095645;28;19931;-66
2022/11/16 10:54:11;;;;;;;;;;;16.10;98.90;;;;;;5112904;28;19928;-67
2022/11/16 10:56:38;;;;;;;;;;;16.00;98.90;;;;;;5094183;28;20356;-67
2022/11/16 10:59:05;;;;;;;;;;;16.00;98.90;;;;;;5112833;28;19967;-69
2022/11/16 11:01:49;;;;;;;;;;;15.80;98.90;;;;;;5112714;28;20282;-67
2022/11/16 11:04:21;;;;;;;;;;;15.80;99.00;;;;;;5112422;28;19928;-64
2022/11/16 11:06:48;;;;;;;;;;;15.70;98.90;;;;;;5098060;28;19978;-65
2022/11/16 11:09:32;;;;;;;;;;;15.90;99.00;;;;;;5099599;28;19959;-66
2022/11/16 11:14:59;;;;;;;;;;;15.70;99.00;;;;;;5113932;28;19928;-65
2022/11/16 11:17:25;;;;;;;;;;;;;;;;;;5091081;28;19924;-67
2022/11/16 11:20:00;;;;;;;;;;;15.80;99.30;;;;;;5116342;28;19931;-67
2022/11/16 11:22:27;;;;;;;;;;;;;;;;;;5115192;28;20350;-72
2022/11/16 11:24:52;;;;;;;;;;;15.70;99.20;;;;;;5113061;28;19924;-66
2022/11/16 11:27:22;;;;;;;;;;;15.50;99.20;;;;;;5098450;28;19930;-68
2022/11/16 11:29:52;;;;;;;;;;;15.90;99.30;;;;;;5098973;28;19984;-66
2022/11/16 11:32:18;;;;;;;;;;;15.70;99.20;;;;;;5116006;28;19923;-67
2022/11/16 11:34:47;;;;;;;;;;;15.90;99.20;;;;;;5115807;28;20014;-67
2022/11/16 11:37:24;;;;;;;;;;;15.80;99.20;;;;;;5117683;28;19927;-66
2022/11/16 11:40:03;;;;;;;;;;;15.90;99.20;;;;;;5117632;28;19931;-66
2022/11/16 11:42:28;;;;;;;;;;;15.90;99.20;;;;;;5115792;28;19974;-66
2022/11/16 11:44:57;;;;;;;;;;;15.90;99.10;;;;;;5113241;28;20369;-64
2022/11/16 11:47:43;;;;;;;;;;;15.90;99.00;;;;;;5112410;28;19924;-64
2022/11/16 11:50:13;;;;;;;;;;;16.10;99.10;;;;;;5116546;28;19963;-65
2022/11/16 11:52:58;;;;;;;;;;;16.00;99.20;;;;;;5095033;28;19969;-64
2022/11/16 11:55:23;;;;;;;;;;;15.70;99.10;;;;;;5097670;28;19928;-64
2022/11/16 11:57:49;;;;;;;;;;;16.10;99.20;;;;;;5097281;28;20391;-65
2022/11/16 12:00:16;;;;;;;;;;;15.80;99.20;;;;;;5115223;28;20412;-65
2022/11/16 12:02:47;;;;;;;;;;;15.80;99.10;;;;;;5116886;28;19923;-64
2022/11/16 12:05:19;;;;;;;;;;;15.90;99.10;;;;;;5090065;28;20310;-65
2022/11/16 12:07:48;;;;;;;;;;;16.10;99.10;;;;;;5113566;28;19924;-65
2022/11/16 12:10:32;;;;;;;;;;;16.00;99.00;;;;;;5097425;28;19924;-67
2022/11/16 12:13:17;;;;;;;;;;;15.90;99.00;;;;;;5106702;28;19924;-66
2022/11/16 12:15:42;;;;;;;;;;;15.90;99.00;;;;;;5094628;28;19924;-64
2022/11/16 12:18:20;;;;;;;;;;;16.20;99.00;;;;;;5094657;28;19943;-64
2022/11/16 12:20:52;;;;;;;;;;;16.10;98.90;;;;;;5094853;28;19928;-65
2022/11/16 12:23:27;;;;;;;;;;;16.10;98.90;;;;;;5115182;28;19927;-66
2022/11/16 12:26:05;;;;;;;;;;;16.30;99.00;;;;;;5116064;28;20284;-64
2022/11/16 12:29:06;;;;;;;;;;;16.00;98.90;;;;;;5132242;27;19968;-66
2022/11/16 12:31:35;;;;;;;;;;;16.20;98.90;;;;;;5070314;28;19924;-64
2022/11/16 12:34:09;;;;;;;;;;;16.20;98.90;;;;;;5093737;28;20343;-64
2022/11/16 12:36:44;;;;;;;;;;;16.00;98.90;;;;;;5093499;28;19925;-64
2022/11/16 12:39:23;;;;;;;;;;;16.20;99.00;;;;;;5093441;28;19925;-64
2022/11/16 12:41:49;;;;;;;;;;;16.20;98.90;;;;;;5091669;28;19978;-64
2022/11/16 12:44:19;;;;;;;;;;;16.30;98.90;;;;;;5076013;28;19976;-64
2022/11/16 12:46:50;;;;;;;;;;;16.20;98.90;;;;;;5076483;28;19932;-66
2022/11/16 12:49:26;;;;;;;;;;;16.20;98.90;;;;;;5093494;28;20019;-63
2022/11/16 12:52:04;;;;;;;;;;;16.10;98.80;;;;;;5091760;28;19924;-63
2022/11/16 12:54:36;;;;;;;;;;;16.20;98.90;;;;;;5076298;28;19997;-65
2022/11/16 12:57:02;;;;;;;;;;;;;;;;;;5092936;28;20440;-65
2022/11/16 12:59:27;;;;;;;;;;;16.00;98.80;;;;;;5091008;28;19928;-64
2022/11/16 13:02:08;;;;;;;;;;;16.10;98.80;;;;;;5092625;28;19955;-64
2022/11/16 13:04:40;;;;;;;;;;;16.10;98.80;;;;;;5093008;28;19931;-65
2022/11/16 13:07:07;;;;;;;;;;;16.20;98.90;;;;;;5095236;28;19971;-67
2022/11/16 13:09:35;;;;;;;;;;;16.00;98.80;;;;;;5095262;28;19924;-66
2022/11/16 13:12:02;;;;;;;;;;;16.30;98.80;;;;;;5094570;28;20020;-64
2022/11/16 13:14:38;;;;;;;;;;;16.10;98.70;;;;;;5113589;28;20319;-64
2022/11/16 13:17:03;;;;;;;;;;;16.20;98.80;;;;;;5097107;28;19993;-63
2022/11/16 13:19:29;;;;;;;;;;;16.50;98.80;;;;;;5114197;28;19924;-67
2022/11/16 13:21:55;;;;;;;;;;;16.30;98.70;;;;;;5097179;28;20391;-67
2022/11/16 13:24:39;;;;;;;;;;;16.30;98.80;;;;;;5114415;28;19923;-66
2022/11/16 13:27:24;;;;;;;;;;;16.40;98.80;;;;;;5113608;28;19931;-67
2022/11/16 13:29:55;;;;;;;;;;;16.20;98.80;;;;;;5114364;28;20312;-66
2022/11/16 13:32:31;;;;;;;;;;;16.10;98.80;;;;;;5107698;28;20394;-65
2022/11/16 13:34:58;;;;;;;;;;;16.30;98.80;;;;;;5114780;28;19928;-67
2022/11/16 13:37:36;;;;;;;;;;;16.30;98.80;;;;;;5114786;27;19928;-66
2022/11/16 13:40:04;;;;;;;;;;;16.40;98.80;;;;;;5112706;28;19930;-66
2022/11/16 13:42:37;;;;;;;;;;;16.50;98.90;;;;;;5114712;28;19931;-66
2022/11/16 13:45:05;;;;;;;;;;;16.50;99.00;;;;;;5114491;28;19924;-64
2022/11/16 13:47:31;;;;;;;;;;;16.60;99.00;;;;;;5115213;28;20322;-67
2022/11/16 13:49:58;;;;;;;;;;;16.50;99.00;;;;;;5113970;28;19941;-67
2022/11/16 13:52:39;;;;;;;;;;;16.60;99.00;;;;;;5114943;28;20323;-67
2022/11/16 13:55:31;;;;;;;;;;;16.40;98.90;;;;;;5114553;28;20010;-66
2022/11/16 13:57:57;;;;;;;;;;;16.20;98.80;;;;;;5113009;28;20365;-66
2022/11/16 14:00:24;;;;;;;;;;;16.40;98.80;;;;;;5115040;28;19923;-66
2022/11/16 14:03:10;;;;;;;;;;;16.50;98.80;;;;;;5096472;28;19993;-66
2022/11/16 14:05:35;;;;;;;;;;;16.10;98.70;;;;;;5111484;28;20006;-66
2022/11/16 14:08:21;;;;;;;;;;;16.50;98.80;;;;;;5114333;28;20020;-67
2022/11/16 14:10:49;;;;;;;;;;;16.30;98.70;;;;;;5109460;28;20082;-67
2022/11/16 14:13:37;;;;;;;;;;;16.30;98.80;;;;;;5114281;28;19924;-66
2022/11/16 14:16:15;;;;;;;;;;;16.20;98.80;;;;;;5113525;28;19924;-64
2022/11/16 14:18:41;;;;;;;;;;;16.50;98.80;;;;;;5114607;28;19923;-64
2022/11/16 14:21:12;;;;;;;;;;;16.20;98.70;;;;;;5111548;28;19946;-64
2022/11/16 14:23:57;;;;;;;;;;;16.60;98.50;;;;;;5114463;28;20405;-65
2022/11/16 14:26:41;;;;;;;;;;;16.40;98.80;;;;;;5114246;28;19923;-63
2022/11/16 14:29:26;;;;;;;;;;;16.20;98.70;;;;;;5112652;28;19927;-67
2022/11/16 14:31:55;;;;;;;;;;;16.60;98.90;;;;;;5108669;28;19930;-67
2022/11/16 14:34:31;;;;;;;;;;;16.30;98.80;;;;;;5104222;28;19924;-67
2022/11/16 14:36:57;;;;;;;;;;;16.40;98.70;;;;;;5105158;28;19923;-66
2022/11/16 14:39:25;;;;;;;;;;;16.10;98.80;;;;;;5114316;28;19919;-66
2022/11/16 14:41:51;;;;;;;;;;;16.20;98.80;;;;;;5116420;28;20385;-65
2022/11/16 14:44:17;;;;;;;;;;;16.50;98.90;;;;;;5099470;28;19935;-65
2022/11/16 14:46:43;;;;;;;;;;;16.50;98.90;;;;;;5110564;28;20288;-65
2022/11/16 14:49:11;;;;;;;;;;;16.20;98.80;;;;;;5099772;28;19923;-65
2022/11/16 14:51:39;;;;;;;;;;;16.10;98.80;;;;;;5100028;28;19935;-64
2022/11/16 14:54:14;;;;;;;;;;;16.30;98.90;;;;;;5117909;28;19931;-66
2022/11/16 14:56:59;;;;;;;;;;;16.30;98.90;;;;;;5116479;28;19959;-65
2022/11/16 14:59:25;;;;;;;;;;;16.10;98.90;;;;;;5116419;28;19923;-70
2022/11/16 15:01:51;;;;;;;;;;;16.20;98.90;;;;;;5117738;27;20018;-68
2022/11/16 15:04:16;;;;;;;;;;;16.20;98.90;;;;;;5118277;28;20116;-65
2022/11/16 15:07:00;;;;;;;;;;;16.30;99.00;;;;;;5116758;28;20446;-66
2022/11/16 15:09:27;;;;;;;;;;;16.20;98.90;;;;;;5118007;27;20296;-66
2022/11/16 15:14:40;;;;;;;;;;;16.20;98.90;;;;;;5114556;28;20304;-65
2022/11/16 15:17:06;;;;;;;;;;;16.00;99.00;;;;;;5099581;28;19957;-65